createdAt,value
2023-04-16T00:08:00.231Z,0.1
2023-04-16T00:20:00.225Z,0.1
2023-04-16T00:32:00.388Z,0.2
2023-04-16T00:44:00.325Z,0.2
2023-04-16T00:56:00.281Z,0.2
2023-04-16T01:08:00.244Z,0.2
2023-04-16T01:20:00.397Z,0.2
2023-04-16T01:32:00.408Z,0.3
2023-04-16T01:44:00.309Z,0.3
2023-04-16T01:56:00.295Z,0.3
2023-04-16T02:08:00.452Z,0.4
2023-04-16T02:20:00.387Z,0.4
2023-04-16T02:32:00.382Z,0.4
2023-04-16T02:44:00.289Z,0.4
2023-04-16T02:56:00.437Z,0.4
2023-04-16T03:08:00.422Z,0.5
2023-04-16T03:20:00.433Z,0.5
2023-04-16T03:32:00.467Z,0.5
2023-04-16T03:44:00.378Z,0.5
2023-04-16T03:56:00.567Z,0.5
2023-04-16T04:08:00.482Z,0.6
2023-04-16T04:20:01.595Z,0.6
2023-04-16T04:32:00.501Z,0.6
2023-04-16T04:44:00.565Z,0.6
2023-04-16T04:56:09.078Z,0.6
2023-04-16T05:08:00.486Z,0.7
2023-04-16T05:20:00.645Z,0.7
2023-04-16T05:32:00.649Z,0.7
2023-04-16T05:44:00.554Z,0.7
2023-04-16T05:56:00.513Z,0.7
2023-04-16T06:08:00.651Z,0.8
2023-04-16T06:20:00.629Z,0.8
2023-04-16T06:32:00.597Z,0.8
2023-04-16T06:44:00.757Z,0.8
2023-04-16T06:56:00.666Z,0.8
2023-04-16T07:08:00.645Z,0.9
2023-04-16T07:20:00.604Z,0.9
2023-04-16T07:32:00.805Z,0.9
2023-04-16T07:44:00.702Z,0.9
2023-04-16T07:56:00.692Z,0.9
2023-04-16T08:08:00.624Z,1
2023-04-16T08:20:00.788Z,1
2023-04-16T08:32:00.763Z,1.1
2023-04-16T08:44:00.742Z,1.1
2023-04-16T08:56:00.887Z,1.1
2023-04-16T09:08:00.856Z,1.1
2023-04-16T09:20:00.807Z,1.1
2023-04-16T09:32:00.959Z,1.2
2023-04-16T09:44:00.781Z,1.2
2023-04-16T09:56:00.913Z,1.2
2023-04-16T10:08:00.883Z,1.2
2023-04-16T10:20:00.861Z,1.2
2023-04-16T10:32:01.010Z,1.3
2023-04-16T10:44:00.954Z,1.3
2023-04-16T10:56:01.514Z,1.3
2023-04-16T11:08:00.857Z,1.4
2023-04-16T11:20:00.997Z,1.4
2023-04-16T11:32:01.003Z,1.4
2023-04-16T11:44:00.900Z,1.4
2023-04-16T11:56:00.866Z,1.4
2023-04-16T12:08:01.014Z,1.5
2023-04-16T12:20:00.990Z,1.5
2023-04-16T12:32:00.943Z,1.5
2023-04-16T12:44:01.108Z,1.5
2023-04-16T12:56:01.046Z,1.5
2023-04-16T13:08:01.013Z,1.6
2023-04-16T13:20:00.949Z,1.6
2023-04-16T13:32:01.170Z,1.6
2023-04-16T13:44:01.061Z,1.6
2023-04-16T13:56:01.042Z,1.6
2023-04-16T14:08:00.993Z,1.7
2023-04-16T14:20:01.152Z,1.7
2023-04-16T14:32:01.151Z,1.8
2023-04-16T14:44:01.095Z,1.8
2023-04-16T14:56:01.028Z,1.8
2023-04-16T15:08:01.223Z,1.8
2023-04-16T15:20:01.202Z,1.8
2023-04-16T15:32:01.178Z,1.9
2023-04-16T15:44:01.525Z,1.9
2023-04-16T15:56:01.247Z,1.9
2023-04-16T16:08:01.208Z,1.9
2023-04-16T16:20:01.261Z,1.9
2023-04-16T16:32:01.366Z,2
2023-04-16T16:44:01.288Z,2
2023-04-16T16:56:01.225Z,2
2023-04-16T17:08:01.184Z,2.2
2023-04-16T17:20:01.380Z,2.2
2023-04-16T17:32:01.420Z,2.2
2023-04-16T17:44:01.269Z,2.2
2023-04-16T17:56:01.403Z,2.2
2023-04-16T18:08:01.366Z,2.3
2023-04-16T18:20:01.327Z,2.3
2023-04-16T18:32:04.084Z,2.3
2023-04-16T18:44:01.431Z,2.3
2023-04-16T18:56:01.363Z,2.3
2023-04-16T19:08:01.379Z,2.4
2023-04-16T19:20:01.339Z,2.4
2023-04-16T19:32:01.548Z,2.5
2023-04-16T19:44:01.474Z,2.5
2023-04-16T19:56:01.451Z,2.5
2023-04-16T20:08:01.331Z,2.5
2023-04-16T20:20:01.541Z,2.5
2023-04-16T20:32:01.528Z,2.6
2023-04-16T20:44:01.495Z,2.6
2023-04-16T20:56:01.494Z,2.6
2023-04-16T21:08:01.618Z,2.7
2023-04-16T21:20:01.537Z,2.7
2023-04-16T21:32:01.649Z,2.7
2023-04-16T21:44:01.470Z,2.7
2023-04-16T21:56:01.655Z,2.7
2023-04-16T22:08:05.921Z,2.8
2023-04-16T22:20:02.259Z,2.8
2023-04-16T22:32:01.512Z,2.8
2023-04-16T22:44:01.652Z,2.8
2023-04-16T22:56:01.627Z,2.8
2023-04-16T23:08:01.551Z,0
2023-04-16T23:20:01.701Z,0
2023-04-16T23:32:02.988Z,0.1
2023-04-16T23:44:01.629Z,0.1
2023-04-16T23:56:01.596Z,0.1
